Sant Sadurni d'Anoia, Spain
Current Conditions -  °F | °C
As of 3:30 AM on Saturday 22 Nov 2014 (Local Time) from LEBL Reporting Station
Few Clouds Few Clouds  
Wind Chill: 61°   Ceiling: Unl
Heat Index: 61°   Visibility: 6mi
Dew Point: 55°   Wind: 8mph
Humidity: 82%   Direction: 330°NNW
Pressure: 30.03"   Gusts: NA
Location:  41.42°N, 1.78°E
Report Text: LEBL 220230Z 33007KT 9999 FEW011 16/13 Q1017 NOSIG
Loading
Personal Weather Stations






























Interactive Weather Map New forecast layout! Learn more

10-Day Weather Forecast

Advertisements
Track Severe Weather on mobile